sensor_id;sensor_type;location;lat;lon;timestamp;P1;durP1;ratioP1;P2;durP2;ratioP2
5995;SDS011;3026;53.612;7.278;2024-03-17T00:02:22;5.80;;;2.00;;
5995;SDS011;3026;53.612;7.278;2024-03-17T00:04:49;7.43;;;2.47;;
5995;SDS011;3026;53.612;7.278;2024-03-17T00:07:17;6.47;;;2.37;;
5995;SDS011;3026;53.612;7.278;2024-03-17T00:09:44;7.77;;;2.60;;
5995;SDS011;3026;53.612;7.278;2024-03-17T00:12:10;9.60;;;3.10;;
5995;SDS011;3026;53.612;7.278;2024-03-17T00:14:37;8.67;;;2.43;;
5995;SDS011;3026;53.612;7.278;2024-03-17T00:17:05;9.20;;;2.70;;
5995;SDS011;3026;53.612;7.278;2024-03-17T00:19:33;9.63;;;2.90;;
5995;SDS011;3026;53.612;7.278;2024-03-17T00:22:00;9.10;;;2.60;;
5995;SDS011;3026;53.612;7.278;2024-03-17T00:24:29;9.57;;;3.13;;
5995;SDS011;3026;53.612;7.278;2024-03-17T00:27:00;8.63;;;2.63;;
5995;SDS011;3026;53.612;7.278;2024-03-17T00:29:30;9.93;;;2.60;;
5995;SDS011;3026;53.612;7.278;2024-03-17T00:31:57;9.97;;;4.63;;
5995;SDS011;3026;53.612;7.278;2024-03-17T00:34:24;9.67;;;2.97;;
5995;SDS011;3026;53.612;7.278;2024-03-17T00:36:50;9.33;;;2.87;;
5995;SDS011;3026;53.612;7.278;2024-03-17T00:39:18;12.27;;;3.47;;
5995;SDS011;3026;53.612;7.278;2024-03-17T00:41:46;8.20;;;2.77;;
5995;SDS011;3026;53.612;7.278;2024-03-17T00:44:14;8.53;;;2.60;;
5995;SDS011;3026;53.612;7.278;2024-03-17T00:46:41;10.37;;;2.77;;
5995;SDS011;3026;53.612;7.278;2024-03-17T00:49:08;11.17;;;2.73;;
5995;SDS011;3026;53.612;7.278;2024-03-17T00:51:36;8.83;;;3.10;;
5995;SDS011;3026;53.612;7.278;2024-03-17T00:54:03;8.10;;;2.70;;
5995;SDS011;3026;53.612;7.278;2024-03-17T00:56:31;5.33;;;2.50;;
5995;SDS011;3026;53.612;7.278;2024-03-17T00:59:00;6.60;;;2.80;;
5995;SDS011;3026;53.612;7.278;2024-03-17T01:01:26;9.03;;;3.10;;
5995;SDS011;3026;53.612;7.278;2024-03-17T01:03:53;7.73;;;3.57;;
5995;SDS011;3026;53.612;7.278;2024-03-17T01:06:21;9.67;;;3.17;;
5995;SDS011;3026;53.612;7.278;2024-03-17T01:08:49;11.27;;;3.23;;
5995;SDS011;3026;53.612;7.278;2024-03-17T01:11:17;10.33;;;3.50;;
5995;SDS011;3026;53.612;7.278;2024-03-17T01:13:46;8.93;;;2.60;;
5995;SDS011;3026;53.612;7.278;2024-03-17T01:16:14;10.10;;;3.17;;
5995;SDS011;3026;53.612;7.278;2024-03-17T01:18:41;9.10;;;2.90;;
5995;SDS011;3026;53.612;7.278;2024-03-17T01:21:08;8.10;;;3.00;;
5995;SDS011;3026;53.612;7.278;2024-03-17T01:23:36;8.77;;;3.40;;
5995;SDS011;3026;53.612;7.278;2024-03-17T01:26:02;9.33;;;2.97;;
5995;SDS011;3026;53.612;7.278;2024-03-17T01:28:29;12.47;;;3.33;;
5995;SDS011;3026;53.612;7.278;2024-03-17T01:30:55;10.20;;;3.03;;
5995;SDS011;3026;53.612;7.278;2024-03-17T01:33:24;9.70;;;2.90;;
5995;SDS011;3026;53.612;7.278;2024-03-17T01:35:51;7.67;;;3.33;;
5995;SDS011;3026;53.612;7.278;2024-03-17T01:38:18;10.80;;;2.60;;
5995;SDS011;3026;53.612;7.278;2024-03-17T01:40:44;13.00;;;3.60;;
5995;SDS011;3026;53.612;7.278;2024-03-17T01:43:11;6.30;;;3.07;;
5995;SDS011;3026;53.612;7.278;2024-03-17T01:45:37;10.93;;;3.10;;
5995;SDS011;3026;53.612;7.278;2024-03-17T01:48:04;10.47;;;2.90;;
5995;SDS011;3026;53.612;7.278;2024-03-17T01:50:39;5.90;;;3.13;;
5995;SDS011;3026;53.612;7.278;2024-03-17T01:53:06;9.47;;;2.43;;
5995;SDS011;3026;53.612;7.278;2024-03-17T01:55:37;7.97;;;2.87;;
5995;SDS011;3026;53.612;7.278;2024-03-17T01:58:05;8.63;;;3.30;;
5995;SDS011;3026;53.612;7.278;2024-03-17T02:00:32;8.77;;;3.17;;
5995;SDS011;3026;53.612;7.278;2024-03-17T02:03:01;6.30;;;2.70;;
5995;SDS011;3026;53.612;7.278;2024-03-17T02:05:28;7.97;;;2.77;;
5995;SDS011;3026;53.612;7.278;2024-03-17T02:07:58;9.73;;;2.90;;
5995;SDS011;3026;53.612;7.278;2024-03-17T02:10:23;10.53;;;3.97;;
5995;SDS011;3026;53.612;7.278;2024-03-17T02:12:51;7.83;;;2.60;;
5995;SDS011;3026;53.612;7.278;2024-03-17T02:15:18;10.97;;;2.70;;
5995;SDS011;3026;53.612;7.278;2024-03-17T02:17:45;7.77;;;3.37;;
5995;SDS011;3026;53.612;7.278;2024-03-17T02:20:12;7.40;;;3.00;;
5995;SDS011;3026;53.612;7.278;2024-03-17T02:22:41;6.97;;;3.07;;
5995;SDS011;3026;53.612;7.278;2024-03-17T02:25:07;4.13;;;2.47;;
5995;SDS011;3026;53.612;7.278;2024-03-17T02:27:38;8.23;;;2.67;;
5995;SDS011;3026;53.612;7.278;2024-03-17T02:30:07;11.03;;;2.97;;
5995;SDS011;3026;53.612;7.278;2024-03-17T02:32:37;7.77;;;3.33;;
5995;SDS011;3026;53.612;7.278;2024-03-17T02:35:04;6.53;;;2.60;;
5995;SDS011;3026;53.612;7.278;2024-03-17T02:37:31;5.43;;;2.33;;
5995;SDS011;3026;53.612;7.278;2024-03-17T02:40:04;6.43;;;2.33;;
5995;SDS011;3026;53.612;7.278;2024-03-17T02:42:32;6.27;;;2.53;;
5995;SDS011;3026;53.612;7.278;2024-03-17T02:44:59;9.00;;;2.83;;
5995;SDS011;3026;53.612;7.278;2024-03-17T02:47:26;4.63;;;2.60;;
5995;SDS011;3026;53.612;7.278;2024-03-17T02:49:53;9.87;;;2.70;;
5995;SDS011;3026;53.612;7.278;2024-03-17T02:52:21;6.10;;;2.60;;
5995;SDS011;3026;53.612;7.278;2024-03-17T02:54:48;7.17;;;2.80;;
5995;SDS011;3026;53.612;7.278;2024-03-17T02:57:19;7.33;;;2.20;;
5995;SDS011;3026;53.612;7.278;2024-03-17T02:59:48;3.87;;;2.30;;
5995;SDS011;3026;53.612;7.278;2024-03-17T03:02:19;7.93;;;2.30;;
5995;SDS011;3026;53.612;7.278;2024-03-17T03:04:48;8.87;;;2.97;;
5995;SDS011;3026;53.612;7.278;2024-03-17T03:07:15;5.93;;;2.10;;
5995;SDS011;3026;53.612;7.278;2024-03-17T03:09:44;6.23;;;2.53;;
5995;SDS011;3026;53.612;7.278;2024-03-17T03:12:13;4.77;;;2.40;;
5995;SDS011;3026;53.612;7.278;2024-03-17T03:14:41;4.03;;;2.17;;
5995;SDS011;3026;53.612;7.278;2024-03-17T03:17:09;9.33;;;2.27;;
5995;SDS011;3026;53.612;7.278;2024-03-17T03:19:36;6.13;;;2.07;;
5995;SDS011;3026;53.612;7.278;2024-03-17T03:22:04;6.60;;;2.23;;
5995;SDS011;3026;53.612;7.278;2024-03-17T03:24:31;8.47;;;2.27;;
5995;SDS011;3026;53.612;7.278;2024-03-17T03:27:01;4.30;;;2.00;;
5995;SDS011;3026;53.612;7.278;2024-03-17T03:29:29;7.93;;;2.10;;
5995;SDS011;3026;53.612;7.278;2024-03-17T03:31:59;6.07;;;2.27;;
5995;SDS011;3026;53.612;7.278;2024-03-17T03:34:27;6.43;;;2.43;;
5995;SDS011;3026;53.612;7.278;2024-03-17T03:36:54;4.40;;;2.13;;
5995;SDS011;3026;53.612;7.278;2024-03-17T03:39:22;6.83;;;2.17;;
5995;SDS011;3026;53.612;7.278;2024-03-17T03:41:52;5.30;;;2.07;;
5995;SDS011;3026;53.612;7.278;2024-03-17T03:44:20;4.83;;;2.00;;
5995;SDS011;3026;53.612;7.278;2024-03-17T03:46:47;4.47;;;2.07;;
5995;SDS011;3026;53.612;7.278;2024-03-17T03:49:16;7.13;;;2.70;;
5995;SDS011;3026;53.612;7.278;2024-03-17T03:51:44;7.97;;;2.60;;
5995;SDS011;3026;53.612;7.278;2024-03-17T03:54:12;7.30;;;2.17;;
5995;SDS011;3026;53.612;7.278;2024-03-17T03:56:39;5.07;;;2.33;;
5995;SDS011;3026;53.612;7.278;2024-03-17T03:59:06;6.97;;;2.20;;
5995;SDS011;3026;53.612;7.278;2024-03-17T04:01:34;8.13;;;2.30;;
5995;SDS011;3026;53.612;7.278;2024-03-17T04:04:01;7.00;;;2.37;;
5995;SDS011;3026;53.612;7.278;2024-03-17T04:06:31;8.60;;;1.97;;
5995;SDS011;3026;53.612;7.278;2024-03-17T04:08:58;4.60;;;2.40;;
5995;SDS011;3026;53.612;7.278;2024-03-17T04:11:26;8.73;;;3.00;;
5995;SDS011;3026;53.612;7.278;2024-03-17T04:13:53;4.90;;;2.00;;
5995;SDS011;3026;53.612;7.278;2024-03-17T04:16:22;9.13;;;2.23;;
5995;SDS011;3026;53.612;7.278;2024-03-17T04:18:50;7.97;;;2.40;;
5995;SDS011;3026;53.612;7.278;2024-03-17T04:21:17;8.20;;;2.60;;
5995;SDS011;3026;53.612;7.278;2024-03-17T04:23:50;5.70;;;2.47;;
5995;SDS011;3026;53.612;7.278;2024-03-17T04:26:17;4.70;;;2.30;;
5995;SDS011;3026;53.612;7.278;2024-03-17T04:28:45;8.60;;;2.60;;
5995;SDS011;3026;53.612;7.278;2024-03-17T04:31:12;7.10;;;2.40;;
5995;SDS011;3026;53.612;7.278;2024-03-17T04:33:38;4.53;;;2.20;;
5995;SDS011;3026;53.612;7.278;2024-03-17T04:36:06;5.40;;;2.43;;
5995;SDS011;3026;53.612;7.278;2024-03-17T04:38:34;8.20;;;2.27;;
5995;SDS011;3026;53.612;7.278;2024-03-17T04:41:03;3.87;;;1.83;;
5995;SDS011;3026;53.612;7.278;2024-03-17T04:43:33;6.53;;;2.47;;
5995;SDS011;3026;53.612;7.278;2024-03-17T04:46:01;4.60;;;2.43;;
5995;SDS011;3026;53.612;7.278;2024-03-17T04:48:30;5.17;;;2.00;;
5995;SDS011;3026;53.612;7.278;2024-03-17T04:50:57;6.40;;;2.27;;
5995;SDS011;3026;53.612;7.278;2024-03-17T04:53:25;5.73;;;2.13;;
5995;SDS011;3026;53.612;7.278;2024-03-17T04:55:59;2.90;;;1.80;;
5995;SDS011;3026;53.612;7.278;2024-03-17T04:58:30;4.57;;;1.70;;
5995;SDS011;3026;53.612;7.278;2024-03-17T05:00:57;4.33;;;2.90;;
5995;SDS011;3026;53.612;7.278;2024-03-17T05:03:29;5.93;;;2.00;;
5995;SDS011;3026;53.612;7.278;2024-03-17T05:05:59;8.23;;;1.83;;
5995;SDS011;3026;53.612;7.278;2024-03-17T05:08:27;3.73;;;2.10;;
5995;SDS011;3026;53.612;7.278;2024-03-17T05:10:58;7.23;;;2.70;;
5995;SDS011;3026;53.612;7.278;2024-03-17T05:13:26;9.27;;;2.20;;
5995;SDS011;3026;53.612;7.278;2024-03-17T05:15:55;6.03;;;3.07;;
5995;SDS011;3026;53.612;7.278;2024-03-17T05:18:22;5.50;;;2.10;;
5995;SDS011;3026;53.612;7.278;2024-03-17T05:20:57;4.87;;;2.30;;
5995;SDS011;3026;53.612;7.278;2024-03-17T05:23:26;5.70;;;2.37;;
5995;SDS011;3026;53.612;7.278;2024-03-17T05:25:54;8.00;;;2.70;;
5995;SDS011;3026;53.612;7.278;2024-03-17T05:28:24;6.90;;;2.80;;
5995;SDS011;3026;53.612;7.278;2024-03-17T05:30:55;7.00;;;2.40;;
5995;SDS011;3026;53.612;7.278;2024-03-17T05:33:23;6.33;;;2.57;;
5995;SDS011;3026;53.612;7.278;2024-03-17T05:35:52;5.80;;;2.30;;
5995;SDS011;3026;53.612;7.278;2024-03-17T05:38:20;4.30;;;2.50;;
5995;SDS011;3026;53.612;7.278;2024-03-17T05:40:53;5.27;;;2.70;;
5995;SDS011;3026;53.612;7.278;2024-03-17T05:43:21;6.83;;;2.63;;
5995;SDS011;3026;53.612;7.278;2024-03-17T05:45:49;5.47;;;3.30;;
5995;SDS011;3026;53.612;7.278;2024-03-17T05:48:18;4.43;;;2.77;;
5995;SDS011;3026;53.612;7.278;2024-03-17T05:50:47;10.40;;;3.67;;
5995;SDS011;3026;53.612;7.278;2024-03-17T05:53:16;11.43;;;3.60;;
5995;SDS011;3026;53.612;7.278;2024-03-17T05:55:43;10.57;;;3.50;;
5995;SDS011;3026;53.612;7.278;2024-03-17T05:58:12;7.87;;;3.43;;
5995;SDS011;3026;53.612;7.278;2024-03-17T06:00:40;8.33;;;3.87;;
5995;SDS011;3026;53.612;7.278;2024-03-17T06:03:07;8.33;;;4.10;;
5995;SDS011;3026;53.612;7.278;2024-03-17T06:05:39;8.47;;;3.50;;
5995;SDS011;3026;53.612;7.278;2024-03-17T06:08:07;10.23;;;4.20;;
5995;SDS011;3026;53.612;7.278;2024-03-17T06:10:37;10.57;;;3.57;;
5995;SDS011;3026;53.612;7.278;2024-03-17T06:13:07;7.20;;;3.93;;
5995;SDS011;3026;53.612;7.278;2024-03-17T06:15:37;10.30;;;3.90;;
5995;SDS011;3026;53.612;7.278;2024-03-17T06:18:05;8.67;;;4.20;;
5995;SDS011;3026;53.612;7.278;2024-03-17T06:20:34;8.60;;;4.20;;
5995;SDS011;3026;53.612;7.278;2024-03-17T06:23:04;12.20;;;4.27;;
5995;SDS011;3026;53.612;7.278;2024-03-17T06:25:37;6.53;;;4.10;;
5995;SDS011;3026;53.612;7.278;2024-03-17T06:28:05;11.60;;;4.27;;
5995;SDS011;3026;53.612;7.278;2024-03-17T06:30:33;9.20;;;3.83;;
5995;SDS011;3026;53.612;7.278;2024-03-17T06:33:01;7.57;;;3.67;;
5995;SDS011;3026;53.612;7.278;2024-03-17T06:35:29;7.87;;;3.83;;
5995;SDS011;3026;53.612;7.278;2024-03-17T06:37:58;9.87;;;3.30;;
5995;SDS011;3026;53.612;7.278;2024-03-17T06:40:28;10.00;;;4.10;;
5995;SDS011;3026;53.612;7.278;2024-03-17T06:42:57;11.00;;;4.00;;
5995;SDS011;3026;53.612;7.278;2024-03-17T06:45:24;9.93;;;3.73;;
5995;SDS011;3026;53.612;7.278;2024-03-17T06:48:00;12.53;;;3.90;;
5995;SDS011;3026;53.612;7.278;2024-03-17T06:50:27;10.57;;;3.77;;
5995;SDS011;3026;53.612;7.278;2024-03-17T06:52:54;11.00;;;3.70;;
5995;SDS011;3026;53.612;7.278;2024-03-17T06:55:22;15.30;;;4.20;;
5995;SDS011;3026;53.612;7.278;2024-03-17T06:57:51;8.97;;;4.70;;
5995;SDS011;3026;53.612;7.278;2024-03-17T07:00:18;14.30;;;4.97;;
5995;SDS011;3026;53.612;7.278;2024-03-17T07:02:51;7.83;;;4.70;;
5995;SDS011;3026;53.612;7.278;2024-03-17T07:05:19;10.93;;;4.40;;
5995;SDS011;3026;53.612;7.278;2024-03-17T07:07:46;12.53;;;5.10;;
5995;SDS011;3026;53.612;7.278;2024-03-17T07:10:15;10.00;;;4.23;;
5995;SDS011;3026;53.612;7.278;2024-03-17T07:12:42;12.87;;;4.77;;
5995;SDS011;3026;53.612;7.278;2024-03-17T07:15:11;13.33;;;5.27;;
5995;SDS011;3026;53.612;7.278;2024-03-17T07:17:38;13.33;;;4.23;;
5995;SDS011;3026;53.612;7.278;2024-03-17T07:20:06;12.53;;;4.70;;
5995;SDS011;3026;53.612;7.278;2024-03-17T07:22:37;13.40;;;5.17;;
5995;SDS011;3026;53.612;7.278;2024-03-17T07:25:04;11.80;;;4.30;;
5995;SDS011;3026;53.612;7.278;2024-03-17T07:27:31;10.57;;;3.53;;
5995;SDS011;3026;53.612;7.278;2024-03-17T07:29:59;10.00;;;3.80;;
5995;SDS011;3026;53.612;7.278;2024-03-17T07:32:28;6.07;;;3.83;;
5995;SDS011;3026;53.612;7.278;2024-03-17T07:34:55;13.70;;;4.30;;
5995;SDS011;3026;53.612;7.278;2024-03-17T07:37:30;11.13;;;3.77;;
5995;SDS011;3026;53.612;7.278;2024-03-17T07:39:58;14.57;;;3.57;;
5995;SDS011;3026;53.612;7.278;2024-03-17T07:42:26;12.00;;;3.50;;
5995;SDS011;3026;53.612;7.278;2024-03-17T07:44:54;9.77;;;3.90;;
5995;SDS011;3026;53.612;7.278;2024-03-17T07:47:22;8.30;;;3.17;;
5995;SDS011;3026;53.612;7.278;2024-03-17T07:49:51;8.83;;;3.50;;
5995;SDS011;3026;53.612;7.278;2024-03-17T07:52:19;11.77;;;3.10;;
5995;SDS011;3026;53.612;7.278;2024-03-17T07:54:47;10.20;;;3.47;;
5995;SDS011;3026;53.612;7.278;2024-03-17T07:57:15;7.33;;;3.00;;
5995;SDS011;3026;53.612;7.278;2024-03-17T07:59:43;9.87;;;3.37;;
5995;SDS011;3026;53.612;7.278;2024-03-17T08:02:11;7.20;;;2.57;;
5995;SDS011;3026;53.612;7.278;2024-03-17T08:04:39;16.70;;;3.70;;
5995;SDS011;3026;53.612;7.278;2024-03-17T08:07:10;11.37;;;3.17;;
5995;SDS011;3026;53.612;7.278;2024-03-17T08:09:37;9.63;;;2.67;;
5995;SDS011;3026;53.612;7.278;2024-03-17T08:12:05;8.93;;;2.63;;
5995;SDS011;3026;53.612;7.278;2024-03-17T08:14:35;9.07;;;2.57;;
5995;SDS011;3026;53.612;7.278;2024-03-17T08:17:02;9.47;;;2.57;;
5995;SDS011;3026;53.612;7.278;2024-03-17T08:19:31;9.50;;;2.80;;
5995;SDS011;3026;53.612;7.278;2024-03-17T08:21:58;8.40;;;2.60;;
5995;SDS011;3026;53.612;7.278;2024-03-17T08:24:27;7.57;;;2.40;;
5995;SDS011;3026;53.612;7.278;2024-03-17T08:26:55;5.17;;;2.07;;
5995;SDS011;3026;53.612;7.278;2024-03-17T08:29:22;6.07;;;2.30;;
5995;SDS011;3026;53.612;7.278;2024-03-17T08:31:50;4.10;;;2.10;;
5995;SDS011;3026;53.612;7.278;2024-03-17T08:34:18;8.13;;;2.17;;
5995;SDS011;3026;53.612;7.278;2024-03-17T08:36:46;5.50;;;1.93;;
5995;SDS011;3026;53.612;7.278;2024-03-17T08:39:13;9.43;;;2.47;;
5995;SDS011;3026;53.612;7.278;2024-03-17T08:41:42;7.27;;;2.17;;
5995;SDS011;3026;53.612;7.278;2024-03-17T08:44:10;9.80;;;2.90;;
5995;SDS011;3026;53.612;7.278;2024-03-17T08:46:39;7.30;;;2.30;;
5995;SDS011;3026;53.612;7.278;2024-03-17T08:49:06;9.40;;;2.10;;
5995;SDS011;3026;53.612;7.278;2024-03-17T08:51:35;6.00;;;2.60;;
5995;SDS011;3026;53.612;7.278;2024-03-17T08:54:02;9.67;;;2.33;;
5995;SDS011;3026;53.612;7.278;2024-03-17T08:56:29;7.57;;;2.20;;
5995;SDS011;3026;53.612;7.278;2024-03-17T08:58:58;8.87;;;2.23;;
5995;SDS011;3026;53.612;7.278;2024-03-17T09:01:25;7.97;;;2.00;;
5995;SDS011;3026;53.612;7.278;2024-03-17T09:03:53;6.53;;;1.90;;
5995;SDS011;3026;53.612;7.278;2024-03-17T09:06:22;5.43;;;2.00;;
5995;SDS011;3026;53.612;7.278;2024-03-17T09:08:52;6.53;;;2.27;;
5995;SDS011;3026;53.612;7.278;2024-03-17T09:11:20;7.37;;;2.10;;
5995;SDS011;3026;53.612;7.278;2024-03-17T09:13:50;7.13;;;2.20;;
5995;SDS011;3026;53.612;7.278;2024-03-17T09:16:19;5.37;;;1.93;;
5995;SDS011;3026;53.612;7.278;2024-03-17T09:18:50;7.93;;;2.20;;
5995;SDS011;3026;53.612;7.278;2024-03-17T09:21:18;7.93;;;1.83;;
5995;SDS011;3026;53.612;7.278;2024-03-17T09:23:46;16.40;;;2.43;;
5995;SDS011;3026;53.612;7.278;2024-03-17T09:26:13;11.10;;;2.23;;
5995;SDS011;3026;53.612;7.278;2024-03-17T09:28:41;8.57;;;2.00;;
5995;SDS011;3026;53.612;7.278;2024-03-17T09:31:09;8.77;;;1.80;;
5995;SDS011;3026;53.612;7.278;2024-03-17T09:33:39;6.83;;;1.70;;
5995;SDS011;3026;53.612;7.278;2024-03-17T09:36:08;8.10;;;2.03;;
5995;SDS011;3026;53.612;7.278;2024-03-17T09:38:38;4.93;;;1.80;;
5995;SDS011;3026;53.612;7.278;2024-03-17T09:41:06;8.77;;;2.33;;
5995;SDS011;3026;53.612;7.278;2024-03-17T09:43:33;8.17;;;2.20;;
5995;SDS011;3026;53.612;7.278;2024-03-17T09:46:03;6.97;;;2.07;;
5995;SDS011;3026;53.612;7.278;2024-03-17T09:48:32;6.37;;;2.70;;
5995;SDS011;3026;53.612;7.278;2024-03-17T09:51:00;8.63;;;2.10;;
5995;SDS011;3026;53.612;7.278;2024-03-17T09:53:30;4.63;;;1.80;;
5995;SDS011;3026;53.612;7.278;2024-03-17T09:55:58;9.43;;;1.80;;
5995;SDS011;3026;53.612;7.278;2024-03-17T09:58:29;8.63;;;2.30;;
5995;SDS011;3026;53.612;7.278;2024-03-17T10:00:56;8.13;;;1.80;;
5995;SDS011;3026;53.612;7.278;2024-03-17T10:03:42;6.47;;;1.63;;
5995;SDS011;3026;53.612;7.278;2024-03-17T10:06:13;5.03;;;1.80;;
5995;SDS011;3026;53.612;7.278;2024-03-17T10:08:42;9.07;;;1.90;;
5995;SDS011;3026;53.612;7.278;2024-03-17T10:11:09;10.00;;;3.30;;
5995;SDS011;3026;53.612;7.278;2024-03-17T10:13:36;6.20;;;1.70;;
5995;SDS011;3026;53.612;7.278;2024-03-17T10:16:03;8.00;;;1.63;;
5995;SDS011;3026;53.612;7.278;2024-03-17T10:18:30;6.43;;;1.90;;
5995;SDS011;3026;53.612;7.278;2024-03-17T10:20:58;9.00;;;2.50;;
5995;SDS011;3026;53.612;7.278;2024-03-17T10:23:29;8.30;;;2.50;;
5995;SDS011;3026;53.612;7.278;2024-03-17T10:25:57;7.23;;;2.07;;
5995;SDS011;3026;53.612;7.278;2024-03-17T10:28:24;9.00;;;2.93;;
5995;SDS011;3026;53.612;7.278;2024-03-17T10:30:59;8.87;;;2.07;;
5995;SDS011;3026;53.612;7.278;2024-03-17T10:33:27;8.93;;;2.07;;
5995;SDS011;3026;53.612;7.278;2024-03-17T10:35:58;8.00;;;2.07;;
5995;SDS011;3026;53.612;7.278;2024-03-17T10:38:25;8.53;;;2.63;;
5995;SDS011;3026;53.612;7.278;2024-03-17T10:40:55;5.83;;;2.10;;
5995;SDS011;3026;53.612;7.278;2024-03-17T10:43:23;8.87;;;2.93;;
5995;SDS011;3026;53.612;7.278;2024-03-17T10:45:52;6.77;;;2.30;;
5995;SDS011;3026;53.612;7.278;2024-03-17T10:48:20;5.17;;;1.97;;
5995;SDS011;3026;53.612;7.278;2024-03-17T10:50:51;6.13;;;2.50;;
5995;SDS011;3026;53.612;7.278;2024-03-17T10:53:21;7.93;;;2.37;;
5995;SDS011;3026;53.612;7.278;2024-03-17T10:55:51;5.23;;;2.00;;
5995;SDS011;3026;53.612;7.278;2024-03-17T10:58:34;4.70;;;2.00;;
5995;SDS011;3026;53.612;7.278;2024-03-17T11:01:03;5.37;;;2.00;;
5995;SDS011;3026;53.612;7.278;2024-03-17T11:03:32;5.63;;;2.00;;
5995;SDS011;3026;53.612;7.278;2024-03-17T11:06:01;6.77;;;1.80;;
5995;SDS011;3026;53.612;7.278;2024-03-17T11:08:31;6.10;;;2.20;;
5995;SDS011;3026;53.612;7.278;2024-03-17T11:11:02;7.83;;;2.00;;
5995;SDS011;3026;53.612;7.278;2024-03-17T11:13:31;6.17;;;2.20;;
5995;SDS011;3026;53.612;7.278;2024-03-17T11:16:00;5.77;;;2.13;;
5995;SDS011;3026;53.612;7.278;2024-03-17T11:18:39;6.60;;;2.37;;
5995;SDS011;3026;53.612;7.278;2024-03-17T11:21:07;8.17;;;2.80;;
5995;SDS011;3026;53.612;7.278;2024-03-17T11:23:54;5.03;;;2.40;;
5995;SDS011;3026;53.612;7.278;2024-03-17T11:26:29;7.07;;;2.40;;
5995;SDS011;3026;53.612;7.278;2024-03-17T11:28:58;8.70;;;2.40;;
5995;SDS011;3026;53.612;7.278;2024-03-17T11:31:39;11.37;;;2.60;;
5995;SDS011;3026;53.612;7.278;2024-03-17T11:34:30;8.27;;;2.30;;
5995;SDS011;3026;53.612;7.278;2024-03-17T11:36:59;7.07;;;2.30;;
5995;SDS011;3026;53.612;7.278;2024-03-17T11:42:23;9.13;;;2.63;;
5995;SDS011;3026;53.612;7.278;2024-03-17T11:44:55;4.73;;;1.93;;
5995;SDS011;3026;53.612;7.278;2024-03-17T11:47:34;6.07;;;2.13;;
5995;SDS011;3026;53.612;7.278;2024-03-17T11:50:05;7.77;;;2.60;;
5995;SDS011;3026;53.612;7.278;2024-03-17T11:52:35;7.53;;;2.50;;
5995;SDS011;3026;53.612;7.278;2024-03-17T11:55:03;9.43;;;2.40;;
5995;SDS011;3026;53.612;7.278;2024-03-17T11:57:32;10.47;;;2.63;;
5995;SDS011;3026;53.612;7.278;2024-03-17T12:00:03;4.77;;;2.70;;
5995;SDS011;3026;53.612;7.278;2024-03-17T12:02:33;5.93;;;3.13;;
5995;SDS011;3026;53.612;7.278;2024-03-17T12:05:00;7.40;;;3.07;;
5995;SDS011;3026;53.612;7.278;2024-03-17T12:07:27;7.27;;;2.73;;
5995;SDS011;3026;53.612;7.278;2024-03-17T12:09:56;7.43;;;2.67;;
5995;SDS011;3026;53.612;7.278;2024-03-17T12:12:23;6.50;;;2.20;;
5995;SDS011;3026;53.612;7.278;2024-03-17T12:15:01;7.53;;;2.47;;
5995;SDS011;3026;53.612;7.278;2024-03-17T12:17:28;7.03;;;2.97;;
5995;SDS011;3026;53.612;7.278;2024-03-17T12:19:55;7.83;;;3.17;;
5995;SDS011;3026;53.612;7.278;2024-03-17T12:22:22;6.47;;;2.00;;
5995;SDS011;3026;53.612;7.278;2024-03-17T12:24:52;9.83;;;2.60;;
5995;SDS011;3026;53.612;7.278;2024-03-17T12:27:19;5.47;;;2.47;;
5995;SDS011;3026;53.612;7.278;2024-03-17T12:29:47;7.03;;;3.00;;
5995;SDS011;3026;53.612;7.278;2024-03-17T12:32:16;8.83;;;2.93;;
5995;SDS011;3026;53.612;7.278;2024-03-17T12:34:46;9.20;;;2.83;;
5995;SDS011;3026;53.612;7.278;2024-03-17T12:37:15;6.50;;;2.93;;
5995;SDS011;3026;53.612;7.278;2024-03-17T12:39:45;7.93;;;3.13;;
5995;SDS011;3026;53.612;7.278;2024-03-17T12:42:12;4.97;;;2.27;;
5995;SDS011;3026;53.612;7.278;2024-03-17T12:44:47;5.27;;;2.90;;
5995;SDS011;3026;53.612;7.278;2024-03-17T12:47:16;8.10;;;2.90;;
5995;SDS011;3026;53.612;7.278;2024-03-17T12:49:45;8.47;;;3.33;;
5995;SDS011;3026;53.612;7.278;2024-03-17T12:52:17;6.53;;;3.70;;
5995;SDS011;3026;53.612;7.278;2024-03-17T12:54:45;5.63;;;3.10;;
5995;SDS011;3026;53.612;7.278;2024-03-17T12:57:42;6.80;;;4.10;;
5995;SDS011;3026;53.612;7.278;2024-03-17T13:00:26;6.47;;;3.60;;
5995;SDS011;3026;53.612;7.278;2024-03-17T13:03:03;10.53;;;5.30;;
5995;SDS011;3026;53.612;7.278;2024-03-17T13:05:32;6.50;;;3.63;;
5995;SDS011;3026;53.612;7.278;2024-03-17T13:07:59;7.80;;;3.77;;
5995;SDS011;3026;53.612;7.278;2024-03-17T13:10:27;6.40;;;3.50;;
5995;SDS011;3026;53.612;7.278;2024-03-17T13:13:00;10.00;;;4.10;;
5995;SDS011;3026;53.612;7.278;2024-03-17T13:15:28;8.57;;;3.67;;
5995;SDS011;3026;53.612;7.278;2024-03-17T13:17:56;8.67;;;3.90;;
5995;SDS011;3026;53.612;7.278;2024-03-17T13:20:27;10.37;;;4.37;;
5995;SDS011;3026;53.612;7.278;2024-03-17T13:22:54;7.17;;;4.87;;
5995;SDS011;3026;53.612;7.278;2024-03-17T13:25:24;8.00;;;4.20;;
5995;SDS011;3026;53.612;7.278;2024-03-17T13:27:55;6.47;;;3.43;;
5995;SDS011;3026;53.612;7.278;2024-03-17T13:30:23;6.73;;;3.67;;
5995;SDS011;3026;53.612;7.278;2024-03-17T13:32:52;9.33;;;3.70;;
5995;SDS011;3026;53.612;7.278;2024-03-17T13:35:24;7.90;;;3.60;;
5995;SDS011;3026;53.612;7.278;2024-03-17T13:37:56;10.83;;;4.13;;
5995;SDS011;3026;53.612;7.278;2024-03-17T13:40:25;7.67;;;3.47;;
5995;SDS011;3026;53.612;7.278;2024-03-17T13:42:54;8.70;;;3.30;;
5995;SDS011;3026;53.612;7.278;2024-03-17T13:45:23;6.57;;;3.97;;
5995;SDS011;3026;53.612;7.278;2024-03-17T13:47:53;8.93;;;3.63;;
5995;SDS011;3026;53.612;7.278;2024-03-17T13:50:23;9.33;;;4.57;;
5995;SDS011;3026;53.612;7.278;2024-03-17T13:52:52;7.80;;;4.10;;
5995;SDS011;3026;53.612;7.278;2024-03-17T13:55:21;6.47;;;4.40;;
5995;SDS011;3026;53.612;7.278;2024-03-17T13:57:50;7.50;;;3.83;;
5995;SDS011;3026;53.612;7.278;2024-03-17T14:00:19;9.40;;;3.87;;
5995;SDS011;3026;53.612;7.278;2024-03-17T14:02:48;9.27;;;4.53;;
5995;SDS011;3026;53.612;7.278;2024-03-17T14:05:17;9.63;;;4.43;;
5995;SDS011;3026;53.612;7.278;2024-03-17T14:07:44;9.43;;;4.10;;
5995;SDS011;3026;53.612;7.278;2024-03-17T14:10:16;8.40;;;4.40;;
5995;SDS011;3026;53.612;7.278;2024-03-17T14:12:44;7.83;;;4.00;;
5995;SDS011;3026;53.612;7.278;2024-03-17T14:15:12;7.70;;;4.07;;
5995;SDS011;3026;53.612;7.278;2024-03-17T14:17:41;8.77;;;3.77;;
5995;SDS011;3026;53.612;7.278;2024-03-17T14:20:10;5.40;;;4.17;;
5995;SDS011;3026;53.612;7.278;2024-03-17T14:22:39;7.30;;;4.10;;
5995;SDS011;3026;53.612;7.278;2024-03-17T14:25:08;9.13;;;4.53;;
5995;SDS011;3026;53.612;7.278;2024-03-17T14:27:38;8.00;;;3.90;;
5995;SDS011;3026;53.612;7.278;2024-03-17T14:30:06;4.90;;;4.07;;
5995;SDS011;3026;53.612;7.278;2024-03-17T14:32:33;6.77;;;3.93;;
5995;SDS011;3026;53.612;7.278;2024-03-17T14:35:01;8.87;;;4.07;;
5995;SDS011;3026;53.612;7.278;2024-03-17T14:37:29;6.37;;;3.87;;
5995;SDS011;3026;53.612;7.278;2024-03-17T14:39:56;6.23;;;3.47;;
5995;SDS011;3026;53.612;7.278;2024-03-17T14:42:25;6.57;;;3.87;;
5995;SDS011;3026;53.612;7.278;2024-03-17T14:44:53;8.67;;;4.17;;
5995;SDS011;3026;53.612;7.278;2024-03-17T14:47:23;12.00;;;4.00;;
5995;SDS011;3026;53.612;7.278;2024-03-17T14:49:53;10.20;;;3.70;;
5995;SDS011;3026;53.612;7.278;2024-03-17T14:52:21;7.80;;;3.37;;
5995;SDS011;3026;53.612;7.278;2024-03-17T14:54:49;4.60;;;3.37;;
5995;SDS011;3026;53.612;7.278;2024-03-17T14:57:20;6.53;;;3.57;;
5995;SDS011;3026;53.612;7.278;2024-03-17T14:59:47;10.30;;;3.60;;
5995;SDS011;3026;53.612;7.278;2024-03-17T15:02:18;7.77;;;3.97;;
5995;SDS011;3026;53.612;7.278;2024-03-17T15:04:45;10.20;;;4.03;;
5995;SDS011;3026;53.612;7.278;2024-03-17T15:07:13;7.23;;;3.83;;
5995;SDS011;3026;53.612;7.278;2024-03-17T15:09:43;7.13;;;3.57;;
5995;SDS011;3026;53.612;7.278;2024-03-17T15:12:10;8.97;;;4.17;;
5995;SDS011;3026;53.612;7.278;2024-03-17T15:14:38;6.47;;;3.80;;
5995;SDS011;3026;53.612;7.278;2024-03-17T15:17:08;7.63;;;3.57;;
5995;SDS011;3026;53.612;7.278;2024-03-17T15:19:37;6.67;;;3.70;;
5995;SDS011;3026;53.612;7.278;2024-03-17T15:22:07;5.63;;;3.30;;
5995;SDS011;3026;53.612;7.278;2024-03-17T15:24:34;4.23;;;3.00;;
5995;SDS011;3026;53.612;7.278;2024-03-17T15:27:02;8.33;;;3.43;;